createdAt,value
2023-04-15T00:00:57.739Z,1007.27
2023-04-15T00:03:24.684Z,1007.30
2023-04-15T00:05:53.232Z,1007.24
2023-04-15T00:08:20.023Z,1007.19
2023-04-15T00:10:46.883Z,1007.29
2023-04-15T00:13:13.820Z,1007.35
2023-04-15T00:15:41.099Z,1007.21
2023-04-15T00:18:07.959Z,1007.25
2023-04-15T00:20:34.953Z,1007.25
2023-04-15T00:23:03.419Z,1007.18
2023-04-15T00:25:30.216Z,1007.14
2023-04-15T00:27:57.024Z,1007.23
2023-04-15T00:30:23.791Z,1007.22
2023-04-15T00:32:50.753Z,1007.27
2023-04-15T00:35:17.742Z,1007.22
2023-04-15T00:37:46.226Z,1007.26
2023-04-15T00:40:18.542Z,1007.22
2023-04-15T00:42:45.284Z,1007.23
2023-04-15T00:45:12.124Z,1007.25
2023-04-15T00:47:40.999Z,1007.25
2023-04-15T00:50:09.477Z,1007.25
2023-04-15T00:52:36.639Z,1007.32
2023-04-15T00:55:03.927Z,1007.24
2023-04-15T00:57:32.958Z,1007.15
2023-04-15T01:00:00.847Z,1007.22
2023-04-15T01:02:27.677Z,1007.28
2023-04-15T01:04:54.822Z,1007.29
2023-04-15T01:07:21.589Z,1007.24
2023-04-15T01:09:48.503Z,1007.21
2023-04-15T01:12:16.951Z,1007.25
2023-04-15T01:14:45.211Z,1007.32
2023-04-15T01:17:12.022Z,1007.26
2023-04-15T01:19:38.911Z,1007.13
2023-04-15T01:22:05.727Z,1007.17
2023-04-15T01:24:32.874Z,1007.08
2023-04-15T01:27:01.412Z,1007.12
2023-04-15T01:29:28.316Z,1007.06
2023-04-15T01:31:56.381Z,1007.07
2023-04-15T01:34:23.610Z,1007.08
2023-04-15T01:36:50.537Z,1007.10
2023-04-15T01:39:17.309Z,1007.05
2023-04-15T01:41:44.172Z,1007.08
2023-04-15T01:44:12.373Z,1007.06
2023-04-15T01:46:39.191Z,1007.11
2023-04-15T01:49:06.024Z,1006.98
2023-04-15T01:51:32.735Z,1007.05
2023-04-15T01:53:59.456Z,1007.07
2023-04-15T01:56:26.381Z,1007.07
2023-04-15T01:58:53.221Z,1007.17
2023-04-15T02:01:21.440Z,1007.22
2023-04-15T02:03:48.652Z,1007.20
2023-04-15T02:06:15.555Z,1007.30
2023-04-15T02:08:42.351Z,1007.29
2023-04-15T02:11:09.132Z,1007.34
2023-04-15T02:13:36.141Z,1007.33
2023-04-15T02:16:03.576Z,1007.37
2023-04-15T02:18:31.741Z,1007.30
2023-04-15T02:20:59.011Z,1007.25
2023-04-15T02:23:25.983Z,1007.23
2023-04-15T02:25:53.872Z,1007.29
2023-04-15T02:28:21.143Z,1007.31
2023-04-15T02:30:48.495Z,1007.49
2023-04-15T02:33:15.300Z,1007.38
2023-04-15T02:35:45.914Z,1007.34
2023-04-15T02:38:12.860Z,1007.42
2023-04-15T02:40:39.721Z,1007.34
2023-04-15T02:43:06.560Z,1007.50
2023-04-15T02:45:33.382Z,1007.46
2023-04-15T02:48:00.146Z,1007.55
2023-04-15T02:50:27.025Z,1007.53
2023-04-15T02:52:55.243Z,1007.50
2023-04-15T02:55:22.276Z,1007.53
2023-04-15T02:57:49.084Z,1007.44
2023-04-15T03:00:16.047Z,1007.46
2023-04-15T03:02:43.197Z,1007.47
2023-04-15T03:05:12.761Z,1007.53
2023-04-15T03:07:39.657Z,1007.54
2023-04-15T03:10:09.286Z,1007.45
2023-04-15T03:12:36.081Z,1007.58
2023-04-15T03:15:03.018Z,1007.67
2023-04-15T03:17:29.850Z,1007.56
2023-04-15T03:19:56.711Z,1007.56
2023-04-15T03:22:23.553Z,1007.58
2023-04-15T03:24:50.343Z,1007.68
2023-04-15T03:27:18.521Z,1007.71
2023-04-15T03:29:45.266Z,1007.68
2023-04-15T03:32:12.013Z,1007.69
2023-04-15T03:34:38.720Z,1007.71
2023-04-15T03:37:05.670Z,1007.68
2023-04-15T03:39:32.517Z,1007.73
2023-04-15T03:41:59.296Z,1007.70
2023-04-15T03:44:28.152Z,1007.72
2023-04-15T03:46:55.017Z,1007.71
2023-04-15T03:49:21.860Z,1007.67
2023-04-15T03:51:48.620Z,1007.73
2023-04-15T03:54:15.461Z,1007.71
2023-04-15T03:56:42.332Z,1007.69
2023-04-15T03:59:09.396Z,1007.69
2023-04-15T04:01:37.559Z,1007.71
2023-04-15T04:04:04.675Z,1007.73
2023-04-15T04:06:31.655Z,1007.74
2023-04-15T04:08:58.533Z,1007.75
2023-04-15T04:11:25.330Z,1007.75
2023-04-15T04:13:53.300Z,1007.76
2023-04-15T04:16:20.452Z,1007.74
2023-04-15T04:18:48.678Z,1007.75
2023-04-15T04:21:15.544Z,1007.71
2023-04-15T04:23:42.522Z,1007.74
2023-04-15T04:26:09.250Z,1007.74
2023-04-15T04:28:36.044Z,1007.75
2023-04-15T04:31:02.867Z,1007.83
2023-04-15T04:33:29.723Z,1007.85
2023-04-15T04:35:57.858Z,1007.82
2023-04-15T04:38:24.768Z,1007.85
2023-04-15T04:40:51.665Z,1007.81
2023-04-15T04:43:18.444Z,1007.86
2023-04-15T04:45:45.454Z,1007.80
2023-04-15T04:48:12.222Z,1007.84
2023-04-15T04:50:39.083Z,1007.81
2023-04-15T04:53:07.207Z,1007.85
2023-04-15T04:55:33.975Z,1007.83
2023-04-15T04:58:00.770Z,1007.86
2023-04-15T05:00:28.017Z,1007.84
2023-04-15T05:02:54.989Z,1007.84
2023-04-15T05:05:21.964Z,1007.84
2023-04-15T05:07:48.699Z,1007.83
2023-04-15T05:10:17.035Z,1007.86
2023-04-15T05:12:43.991Z,1007.85
2023-04-15T05:15:11.325Z,1007.82
2023-04-15T05:17:38.568Z,1007.85
2023-04-15T05:20:06.942Z,1007.83
2023-04-15T05:22:34.118Z,1007.73
2023-04-15T05:25:01.000Z,1007.73
2023-04-15T05:27:29.438Z,1007.81
2023-04-15T05:29:56.248Z,1007.85
2023-04-15T05:32:23.129Z,1007.78
2023-04-15T05:34:50.007Z,1007.87
2023-04-15T05:37:16.791Z,1007.83
2023-04-15T05:39:43.592Z,1007.86
2023-04-15T05:42:10.355Z,1007.84
2023-04-15T05:44:38.565Z,1007.82
2023-04-15T05:47:05.418Z,1007.75
2023-04-15T05:49:32.286Z,1007.84
2023-04-15T05:51:59.253Z,1007.71
2023-04-15T05:54:26.009Z,1007.70
2023-04-15T05:56:52.831Z,1007.73
2023-04-15T05:59:19.599Z,1007.68
2023-04-15T06:01:47.751Z,1007.66
2023-04-15T06:04:14.705Z,1007.68
2023-04-15T06:06:41.493Z,1007.63
2023-04-15T06:09:08.360Z,1007.54
2023-04-15T06:11:35.138Z,1007.57
2023-04-15T06:14:02.050Z,1007.51
2023-04-15T06:16:28.872Z,1007.49
2023-04-15T06:18:57.008Z,1007.52
2023-04-15T06:21:24.001Z,1007.46
2023-04-15T06:23:50.846Z,1007.51
2023-04-15T06:26:17.629Z,1007.44
2023-04-15T06:28:44.471Z,1007.53
2023-04-15T06:31:11.209Z,1007.54
2023-04-15T06:33:38.014Z,1007.50
2023-04-15T06:36:08.825Z,1007.55
2023-04-15T06:38:35.586Z,1007.51
2023-04-15T06:41:03.518Z,1007.50
2023-04-15T06:43:30.452Z,1007.56
2023-04-15T06:45:57.323Z,1007.60
2023-04-15T06:48:24.518Z,1007.56
2023-04-15T06:50:51.345Z,1007.65
2023-04-15T06:53:19.521Z,1007.60
2023-04-15T06:55:46.308Z,1007.59
2023-04-15T06:58:13.135Z,1007.59
2023-04-15T07:00:39.946Z,1007.65
2023-04-15T07:03:06.783Z,1007.59
2023-04-15T07:05:33.908Z,1007.67
2023-04-15T07:08:00.889Z,1007.67
2023-04-15T07:10:29.226Z,1007.64
2023-04-15T07:12:56.568Z,1007.58
2023-04-15T07:15:23.304Z,1007.71
2023-04-15T07:17:50.115Z,1007.70
2023-04-15T07:20:17.110Z,1007.72
2023-04-15T07:22:43.912Z,1007.64
2023-04-15T07:25:10.733Z,1007.67
2023-04-15T07:27:38.876Z,1007.71
2023-04-15T07:30:07.477Z,1007.70
2023-04-15T07:32:34.397Z,1007.55
2023-04-15T07:35:01.317Z,1007.63
2023-04-15T07:37:28.164Z,1007.63
2023-04-15T07:39:55.058Z,1007.60
2023-04-15T07:42:22.173Z,1007.61
2023-04-15T07:44:51.085Z,1007.62
2023-04-15T07:47:17.998Z,1007.54
2023-04-15T07:49:44.834Z,1007.39
2023-04-15T07:52:11.659Z,1007.33
2023-04-15T07:54:38.383Z,1007.36
2023-04-15T07:57:05.167Z,1007.20
2023-04-15T07:59:31.963Z,1007.26
2023-04-15T08:02:00.391Z,1007.21
2023-04-15T08:04:27.329Z,1007.13
2023-04-15T08:06:54.271Z,1007.08
2023-04-15T08:09:21.193Z,1007.16
2023-04-15T08:11:49.607Z,1007.13
2023-04-15T08:14:16.511Z,1007.05
2023-04-15T08:16:43.322Z,1007.04
2023-04-15T08:19:11.499Z,1007.00
2023-04-15T08:21:38.266Z,1006.97
2023-04-15T08:24:06.196Z,1006.91
2023-04-15T08:26:32.948Z,1006.83
2023-04-15T08:28:59.808Z,1006.87
2023-04-15T08:31:29.404Z,1006.89
2023-04-15T08:33:57.269Z,1006.83
2023-04-15T08:36:25.514Z,1006.89
2023-04-15T08:38:52.321Z,1006.81
2023-04-15T08:41:22.545Z,1006.85
2023-04-15T08:43:53.115Z,1006.90
2023-04-15T08:46:21.068Z,1006.80
2023-04-15T08:48:48.706Z,1006.80
2023-04-15T08:51:16.171Z,1006.87
2023-04-15T08:53:45.185Z,1006.90
2023-04-15T08:56:15.389Z,1006.97
2023-04-15T08:58:43.694Z,1007.02
2023-04-15T09:01:12.527Z,1007.06
2023-04-15T09:03:39.905Z,1007.04
2023-04-15T09:08:49.454Z,1007.05
2023-04-15T09:11:17.106Z,1007.07
2023-04-15T09:13:44.817Z,1007.11
2023-04-15T09:16:11.575Z,1007.12
2023-04-15T09:18:39.045Z,1007.22
2023-04-15T09:21:06.851Z,1007.15
2023-04-15T09:23:33.795Z,1007.19
2023-04-15T09:26:03.646Z,1007.22
2023-04-15T09:28:31.075Z,1007.26
2023-04-15T09:30:58.533Z,1007.22
2023-04-15T09:33:25.800Z,1007.25
2023-04-15T09:36:00.496Z,1007.22
2023-04-15T09:38:27.953Z,1007.33
2023-04-15T09:40:55.259Z,1007.35
2023-04-15T09:43:23.738Z,1007.42
2023-04-15T09:45:52.004Z,1007.53
2023-04-15T09:48:21.086Z,1007.52
2023-04-15T09:50:51.808Z,1007.40
2023-04-15T09:53:20.143Z,1007.47
2023-04-15T09:55:50.292Z,1007.45
2023-04-15T09:58:21.766Z,1007.45
2023-04-15T10:00:52.355Z,1007.45
2023-04-15T10:03:21.253Z,1007.41
2023-04-15T10:05:52.570Z,1007.44
2023-04-15T10:08:23.425Z,1007.42
2023-04-15T10:10:50.382Z,1007.42
2023-04-15T10:13:18.587Z,1007.49
2023-04-15T10:15:52.036Z,1007.46
2023-04-15T10:18:21.547Z,1007.53
2023-04-15T10:20:49.006Z,1007.52
2023-04-15T10:23:16.286Z,1007.38
2023-04-15T10:25:43.598Z,1007.40
2023-04-15T10:28:11.303Z,1007.42
2023-04-15T10:30:38.850Z,1007.29
2023-04-15T10:33:10.261Z,1007.27
2023-04-15T10:35:39.397Z,1007.28
2023-04-15T10:38:36.087Z,1007.24
2023-04-15T10:41:14.019Z,1007.21
2023-04-15T10:43:45.861Z,1007.22
2023-04-15T10:46:12.638Z,1007.19
2023-04-15T10:48:47.467Z,1007.21
2023-04-15T10:51:14.549Z,1007.20
2023-04-15T10:53:42.429Z,1007.16
2023-04-15T10:56:10.303Z,1007.21
2023-04-15T10:58:42.037Z,1007.22
2023-04-15T11:01:08.880Z,1007.15
2023-04-15T11:03:38.687Z,1007.11
2023-04-15T11:06:07.697Z,1007.20
2023-04-15T11:08:54.420Z,1007.24
2023-04-15T11:11:21.352Z,1007.17
2023-04-15T11:13:49.177Z,1007.17
2023-04-15T11:16:16.227Z,1007.17
2023-04-15T11:18:53.110Z,1007.19
2023-04-15T11:21:25.356Z,1007.17
2023-04-15T11:23:52.255Z,1007.14
2023-04-15T11:26:19.015Z,1007.20
2023-04-15T11:28:46.632Z,1007.26
2023-04-15T11:31:16.676Z,1007.21
2023-04-15T11:33:47.714Z,1007.35
2023-04-15T11:36:14.663Z,1007.35
2023-04-15T11:38:47.611Z,1007.46
2023-04-15T11:41:14.533Z,1007.50
2023-04-15T11:43:41.394Z,1007.68
2023-04-15T11:46:08.250Z,1007.61
2023-04-15T11:48:36.579Z,1007.67
2023-04-15T11:51:04.848Z,1007.68
2023-04-15T11:53:39.509Z,1007.61
2023-04-15T11:56:08.873Z,1007.83
2023-04-15T11:58:37.192Z,1007.73
2023-04-15T12:01:04.668Z,1007.73
2023-04-15T12:03:36.859Z,1007.64
2023-04-15T12:06:22.475Z,1007.63
2023-04-15T12:08:56.309Z,1007.50
2023-04-15T12:11:30.590Z,1007.54
2023-04-15T12:13:58.074Z,1007.51
2023-04-15T12:16:25.665Z,1007.48
2023-04-15T12:18:53.253Z,1007.52
2023-04-15T12:21:21.111Z,1007.57
2023-04-15T12:23:51.835Z,1007.55
2023-04-15T12:26:19.030Z,1007.53
2023-04-15T12:28:47.139Z,1007.59
2023-04-15T12:31:14.685Z,1007.58
2023-04-15T12:33:41.825Z,1007.62
2023-04-15T12:36:08.809Z,1007.69
2023-04-15T12:38:35.584Z,1007.67
2023-04-15T12:41:02.425Z,1007.70
2023-04-15T12:43:29.269Z,1007.72
2023-04-15T12:45:57.387Z,1007.90
2023-04-15T12:48:24.202Z,1007.97
2023-04-15T12:50:51.097Z,1008.11
2023-04-15T12:53:18.206Z,1008.15
2023-04-15T12:55:45.020Z,1008.12
2023-04-15T12:58:11.851Z,1008.18
2023-04-15T13:00:38.989Z,1008.19
2023-04-15T13:03:07.494Z,1008.34
2023-04-15T13:05:34.458Z,1008.20
2023-04-15T13:08:01.313Z,1008.13
2023-04-15T13:10:28.127Z,1008.15
2023-04-15T13:12:54.942Z,1008.17
2023-04-15T13:15:21.778Z,1008.11
2023-04-15T13:17:48.816Z,1008.17
2023-04-15T13:20:17.046Z,1008.28
2023-04-15T13:22:43.809Z,1008.13
2023-04-15T13:25:10.673Z,1008.17
2023-04-15T13:27:37.477Z,1008.17
2023-04-15T13:30:05.087Z,1008.25
2023-04-15T13:32:32.074Z,1008.27
2023-04-15T13:34:58.913Z,1008.27
2023-04-15T13:37:28.364Z,1008.31
2023-04-15T13:39:55.496Z,1008.34
2023-04-15T13:42:22.841Z,1008.61
2023-04-15T13:44:50.227Z,1008.70
2023-04-15T13:47:17.202Z,1008.73
2023-04-15T13:49:44.278Z,1008.81
2023-04-15T13:52:11.409Z,1008.81
2023-04-15T13:54:39.633Z,1008.78
2023-04-15T13:57:06.952Z,1008.89
2023-04-15T13:59:34.195Z,1008.85
2023-04-15T14:02:02.178Z,1008.93
2023-04-15T14:04:29.149Z,1009.06
2023-04-15T14:06:56.498Z,1009.28
2023-04-15T14:09:26.213Z,1009.13
2023-04-15T14:11:54.708Z,1009.16
2023-04-15T14:14:21.558Z,1009.26
2023-04-15T14:16:48.433Z,1009.33
2023-04-15T14:19:15.272Z,1009.33
2023-04-15T14:21:42.087Z,1009.30
2023-04-15T14:24:08.850Z,1009.32
2023-04-15T14:26:35.666Z,1009.46
2023-04-15T14:29:04.107Z,1009.46
2023-04-15T14:31:31.064Z,1009.44
2023-04-15T14:33:57.841Z,1009.40
2023-04-15T14:36:24.641Z,1009.45
2023-04-15T14:38:51.514Z,1009.44
2023-04-15T14:41:18.247Z,1009.44
2023-04-15T14:43:45.085Z,1009.45
2023-04-15T14:46:13.280Z,1009.37
2023-04-15T14:48:40.053Z,1009.23
2023-04-15T14:51:06.913Z,1009.22
2023-04-15T14:53:36.025Z,1009.28
2023-04-15T14:56:03.042Z,1009.29
2023-04-15T14:58:29.880Z,1009.34
2023-04-15T15:00:56.661Z,1009.45
2023-04-15T15:03:25.159Z,1009.38
2023-04-15T15:05:52.237Z,1009.47
2023-04-15T15:08:19.103Z,1009.37
2023-04-15T15:10:49.452Z,1009.48
2023-04-15T15:13:17.850Z,1009.51
2023-04-15T15:15:45.139Z,1009.52
2023-04-15T15:18:11.954Z,1009.53
2023-04-15T15:20:40.423Z,1009.52
2023-04-15T15:23:07.522Z,1009.54
2023-04-15T15:25:34.531Z,1009.46
2023-04-15T15:28:01.337Z,1009.52
2023-04-15T15:30:28.477Z,1009.41
2023-04-15T15:32:55.444Z,1009.43
2023-04-15T15:35:22.254Z,1009.37
2023-04-15T15:37:50.508Z,1009.46
2023-04-15T15:40:17.579Z,1009.42
2023-04-15T15:42:44.385Z,1009.54
2023-04-15T15:45:11.695Z,1009.66
2023-04-15T15:47:38.609Z,1009.59
2023-04-15T15:50:06.539Z,1009.52
2023-04-15T15:52:33.304Z,1009.57
2023-04-15T15:55:01.501Z,1009.57
2023-04-15T15:57:28.353Z,1009.55
2023-04-15T16:00:09.867Z,1009.46
2023-04-15T16:02:59.630Z,1009.42
2023-04-15T16:05:25.251Z,1009.27
2023-04-15T16:07:52.060Z,1009.25
2023-04-15T16:10:20.162Z,1009.29
2023-04-15T16:12:46.953Z,1009.13
2023-04-15T16:15:13.684Z,1009.19
2023-04-15T16:17:40.546Z,1009.15
2023-04-15T16:20:08.410Z,1009.19
2023-04-15T16:22:35.608Z,1009.18
2023-04-15T16:25:02.968Z,1009.19
2023-04-15T16:27:31.182Z,1009.19
2023-04-15T16:29:57.910Z,1009.23
2023-04-15T16:32:24.771Z,1009.31
2023-04-15T16:34:52.523Z,1009.31
2023-04-15T16:37:20.360Z,1009.39
2023-04-15T16:39:47.407Z,1009.56
2023-04-15T16:42:14.153Z,1009.53
2023-04-15T16:44:42.334Z,1009.58
2023-04-15T16:47:09.167Z,1009.65
2023-04-15T16:49:35.892Z,1009.79
2023-04-15T16:52:02.757Z,1009.82
2023-04-15T16:54:29.585Z,1009.92
2023-04-15T16:56:56.518Z,1009.94
2023-04-15T16:59:23.503Z,1009.95
2023-04-15T17:01:51.766Z,1009.99
2023-04-15T17:04:18.789Z,1010.08
2023-04-15T17:06:45.583Z,1010.10
2023-04-15T17:09:12.400Z,1010.20
2023-04-15T17:11:39.307Z,1010.23
2023-04-15T17:14:07.172Z,1010.39
2023-04-15T17:16:33.928Z,1010.38
2023-04-15T17:19:02.139Z,1010.57
2023-04-15T17:21:28.975Z,1010.55
2023-04-15T17:23:55.748Z,1010.78
2023-04-15T17:26:22.511Z,1011.03
2023-04-15T17:28:49.478Z,1011.12
2023-04-15T17:31:16.414Z,1011.15
2023-04-15T17:34:00.523Z,1011.11
2023-04-15T17:36:33.335Z,1011.34
2023-04-15T17:39:00.121Z,1011.54
2023-04-15T17:41:27.082Z,1011.63
2023-04-15T17:43:53.921Z,1011.66
2023-04-15T17:46:20.770Z,1011.81
2023-04-15T17:48:47.633Z,1011.79
2023-04-15T17:51:14.350Z,1011.86
2023-04-15T17:53:42.906Z,1012.04
2023-04-15T17:56:09.672Z,1012.21
2023-04-15T17:58:36.438Z,1012.30
2023-04-15T18:01:03.212Z,1012.38
2023-04-15T18:03:30.158Z,1012.39
2023-04-15T18:05:57.122Z,1012.54
2023-04-15T18:08:23.906Z,1012.59
2023-04-15T18:10:52.034Z,1012.67
2023-04-15T18:13:21.444Z,1012.79
2023-04-15T18:15:48.341Z,1012.75
2023-04-15T18:18:15.129Z,1012.86
2023-04-15T18:20:41.962Z,1012.96
2023-04-15T18:23:08.744Z,1013.01
2023-04-15T18:25:36.122Z,1013.09
2023-04-15T18:28:04.304Z,1013.25
2023-04-15T18:30:31.059Z,1013.26
2023-04-15T18:32:57.896Z,1013.25
2023-04-15T18:35:24.717Z,1013.28
2023-04-15T18:37:52.287Z,1013.37
2023-04-15T18:40:20.264Z,1013.30
2023-04-15T18:42:47.029Z,1013.29
2023-04-15T18:45:15.599Z,1013.41
2023-04-15T18:47:42.531Z,1013.44
2023-04-15T18:50:09.772Z,1013.45
2023-04-15T18:52:36.694Z,1013.61
2023-04-15T18:55:03.726Z,1013.66
2023-04-15T18:57:35.757Z,1013.69
2023-04-15T19:00:05.375Z,1013.68
2023-04-15T19:02:33.664Z,1013.75
2023-04-15T19:05:00.530Z,1013.78
2023-04-15T19:07:27.338Z,1013.80
2023-04-15T19:09:54.146Z,1013.83
2023-04-15T19:12:20.974Z,1013.89
2023-04-15T19:14:47.815Z,1013.89
2023-04-15T19:17:14.845Z,1013.97
2023-04-15T19:19:42.960Z,1014.00
2023-04-15T19:22:09.926Z,1014.10
2023-04-15T19:24:36.687Z,1014.04
2023-04-15T19:27:03.516Z,1014.00
2023-04-15T19:29:30.455Z,1014.13
2023-04-15T19:31:57.321Z,1014.16
2023-04-15T19:34:24.058Z,1014.16
2023-04-15T19:36:52.261Z,1014.09
2023-04-15T19:39:19.098Z,1014.23
2023-04-15T19:41:45.861Z,1014.15
2023-04-15T19:44:12.615Z,1014.14
2023-04-15T19:46:39.695Z,1014.19
2023-04-15T19:49:07.035Z,1014.32
2023-04-15T19:51:34.055Z,1014.33
2023-04-15T19:54:02.157Z,1014.45
2023-04-15T19:56:28.952Z,1014.42
2023-04-15T19:58:55.675Z,1014.35
2023-04-15T20:01:22.862Z,1014.38
2023-04-15T20:03:49.752Z,1014.35
2023-04-15T20:06:16.592Z,1014.34
2023-04-15T20:08:43.375Z,1014.24
2023-04-15T20:11:12.379Z,1014.39
2023-04-15T20:13:41.993Z,1014.46
2023-04-15T20:16:09.029Z,1014.57
2023-04-15T20:18:35.859Z,1014.55
2023-04-15T20:21:02.720Z,1014.55
2023-04-15T20:23:29.537Z,1014.58
2023-04-15T20:25:56.260Z,1014.55
2023-04-15T20:28:24.455Z,1014.65
2023-04-15T20:30:51.198Z,1014.70
2023-04-15T20:33:17.908Z,1014.76
2023-04-15T20:35:44.691Z,1014.80
2023-04-15T20:38:11.446Z,1014.81
2023-04-15T20:40:39.476Z,1014.75
2023-04-15T20:43:07.690Z,1014.73
2023-04-15T20:45:35.909Z,1014.76
2023-04-15T20:48:02.705Z,1014.71
2023-04-15T20:50:29.512Z,1014.75
2023-04-15T20:52:56.535Z,1014.74
2023-04-15T20:55:23.430Z,1014.81
2023-04-15T20:57:50.272Z,1014.67
2023-04-15T21:00:17.034Z,1014.72
2023-04-15T21:02:45.330Z,1014.82
2023-04-15T21:05:13.300Z,1014.92
2023-04-15T21:07:40.126Z,1014.95
2023-04-15T21:10:07.542Z,1014.98
2023-04-15T21:12:34.299Z,1015.00
2023-04-15T21:15:01.121Z,1015.04
2023-04-15T21:17:27.867Z,1015.19
2023-04-15T21:19:55.984Z,1015.18
2023-04-15T21:22:22.710Z,1015.28
2023-04-15T21:24:49.522Z,1015.25
2023-04-15T21:27:16.256Z,1015.34
2023-04-15T21:29:43.030Z,1015.30
2023-04-15T21:32:10.295Z,1015.41
2023-04-15T21:34:37.250Z,1015.46
2023-04-15T21:37:05.404Z,1015.44
2023-04-15T21:39:32.306Z,1015.44
2023-04-15T21:41:59.067Z,1015.43
2023-04-15T21:44:25.925Z,1015.54
2023-04-15T21:46:52.830Z,1015.52
2023-04-15T21:49:19.679Z,1015.66
2023-04-15T21:51:46.774Z,1015.75
2023-04-15T21:54:15.333Z,1015.74
2023-04-15T21:56:42.074Z,1015.71
2023-04-15T21:59:08.844Z,1015.71
2023-04-15T22:01:35.636Z,1015.72
2023-04-15T22:04:02.560Z,1015.75
2023-04-15T22:06:29.494Z,1015.76
2023-04-15T22:09:11.252Z,1015.78
2023-04-15T22:11:40.922Z,1015.82
2023-04-15T22:14:07.656Z,1015.81
2023-04-15T22:16:34.529Z,1015.98
2023-04-15T22:19:01.481Z,1015.98
2023-04-15T22:21:28.477Z,1015.92
2023-04-15T22:24:32.544Z,1015.94
2023-04-15T22:26:43.644Z,1016.11
2023-04-15T22:29:10.416Z,1016.02
2023-04-15T22:31:37.184Z,1016.13
2023-04-15T22:34:03.941Z,1016.26
2023-04-15T22:36:30.780Z,1016.28
2023-04-15T22:38:57.641Z,1016.23
2023-04-15T22:41:24.504Z,1016.37
2023-04-15T22:43:52.584Z,1016.43
2023-04-15T22:46:19.331Z,1016.57
2023-04-15T22:48:46.074Z,1016.50
2023-04-15T22:51:12.926Z,1016.49
2023-04-15T22:53:39.688Z,1016.48
2023-04-15T22:56:06.925Z,1016.56
2023-04-15T22:58:33.628Z,1016.59
2023-04-15T23:01:01.845Z,1016.59
2023-04-15T23:03:28.786Z,1016.55
2023-04-15T23:05:55.596Z,1016.52
2023-04-15T23:08:22.347Z,1016.59
2023-04-15T23:10:49.293Z,1016.46
2023-04-15T23:13:16.103Z,1016.48
2023-04-15T23:15:42.907Z,1016.52
2023-04-15T23:18:11.177Z,1016.48
2023-04-15T23:20:38.019Z,1016.46
2023-04-15T23:23:04.731Z,1016.48
2023-04-15T23:25:31.507Z,1016.51
2023-04-15T23:27:58.240Z,1016.61
2023-04-15T23:30:24.958Z,1016.67
2023-04-15T23:32:51.692Z,1016.72
2023-04-15T23:35:19.885Z,1016.79
2023-04-15T23:37:46.747Z,1016.76
2023-04-15T23:40:13.937Z,1016.71
2023-04-15T23:42:40.778Z,1016.84
2023-04-15T23:45:08.893Z,1016.98
2023-04-15T23:47:35.790Z,1016.86
2023-04-15T23:50:02.681Z,1016.93
2023-04-15T23:52:30.796Z,1016.91
2023-04-15T23:54:57.658Z,1016.92
2023-04-15T23:57:24.383Z,1016.85
2023-04-15T23:59:51.103Z,1016.93
